sensor_id;sensor_type;location;lat;lon;timestamp;temperature;humidity
10848;DHT22;5477;48.806;9.154;2023-12-20T00:01:22;7.10;99.90
10848;DHT22;5477;48.806;9.154;2023-12-20T00:03:51;7.10;99.90
10848;DHT22;5477;48.806;9.154;2023-12-20T00:06:19;7.10;99.90
10848;DHT22;5477;48.806;9.154;2023-12-20T00:08:47;7.10;99.90
10848;DHT22;5477;48.806;9.154;2023-12-20T00:11:15;7.10;99.90
10848;DHT22;5477;48.806;9.154;2023-12-20T00:13:43;7.20;99.90
10848;DHT22;5477;48.806;9.154;2023-12-20T00:16:17;7.20;99.90
10848;DHT22;5477;48.806;9.154;2023-12-20T00:18:45;7.20;99.90
10848;DHT22;5477;48.806;9.154;2023-12-20T00:21:13;7.20;99.90
10848;DHT22;5477;48.806;9.154;2023-12-20T00:23:41;7.20;99.90
10848;DHT22;5477;48.806;9.154;2023-12-20T00:26:09;7.20;99.90
10848;DHT22;5477;48.806;9.154;2023-12-20T00:28:37;7.30;99.90
10848;DHT22;5477;48.806;9.154;2023-12-20T00:31:05;7.30;99.90
10848;DHT22;5477;48.806;9.154;2023-12-20T00:33:35;7.30;99.90
10848;DHT22;5477;48.806;9.154;2023-12-20T00:36:04;7.30;99.90
10848;DHT22;5477;48.806;9.154;2023-12-20T00:38:32;7.40;99.90
10848;DHT22;5477;48.806;9.154;2023-12-20T00:41:00;7.40;99.90
10848;DHT22;5477;48.806;9.154;2023-12-20T00:43:29;7.30;99.90
10848;DHT22;5477;48.806;9.154;2023-12-20T00:45:57;7.40;99.90
10848;DHT22;5477;48.806;9.154;2023-12-20T00:48:27;7.40;99.90
10848;DHT22;5477;48.806;9.154;2023-12-20T00:50:58;7.40;99.90
10848;DHT22;5477;48.806;9.154;2023-12-20T00:53:26;7.30;99.90
10848;DHT22;5477;48.806;9.154;2023-12-20T00:55:54;7.30;99.90
10848;DHT22;5477;48.806;9.154;2023-12-20T00:58:22;7.20;99.90
10848;DHT22;5477;48.806;9.154;2023-12-20T01:00:50;7.30;99.90
10848;DHT22;5477;48.806;9.154;2023-12-20T01:03:18;7.20;99.90
10848;DHT22;5477;48.806;9.154;2023-12-20T01:05:46;7.20;99.90
10848;DHT22;5477;48.806;9.154;2023-12-20T01:08:16;7.10;99.90
10848;DHT22;5477;48.806;9.154;2023-12-20T01:10:44;7.10;99.90
10848;DHT22;5477;48.806;9.154;2023-12-20T01:13:13;7.00;99.90
10848;DHT22;5477;48.806;9.154;2023-12-20T01:15:42;7.00;99.90
10848;DHT22;5477;48.806;9.154;2023-12-20T01:18:10;7.00;99.90
10848;DHT22;5477;48.806;9.154;2023-12-20T01:20:38;7.00;99.90
10848;DHT22;5477;48.806;9.154;2023-12-20T01:23:06;7.00;99.90
10848;DHT22;5477;48.806;9.154;2023-12-20T01:25:35;7.00;99.90
10848;DHT22;5477;48.806;9.154;2023-12-20T01:28:04;7.00;99.90
10848;DHT22;5477;48.806;9.154;2023-12-20T01:30:32;7.00;99.90
10848;DHT22;5477;48.806;9.154;2023-12-20T01:33:01;6.90;99.90
10848;DHT22;5477;48.806;9.154;2023-12-20T01:35:29;6.90;99.90
10848;DHT22;5477;48.806;9.154;2023-12-20T01:37:57;7.00;99.90
10848;DHT22;5477;48.806;9.154;2023-12-20T01:40:25;7.00;99.90
10848;DHT22;5477;48.806;9.154;2023-12-20T01:43:04;7.00;99.90
10848;DHT22;5477;48.806;9.154;2023-12-20T01:45:34;7.10;99.90
10848;DHT22;5477;48.806;9.154;2023-12-20T01:48:04;7.20;99.90
10848;DHT22;5477;48.806;9.154;2023-12-20T01:50:35;7.10;99.90
10848;DHT22;5477;48.806;9.154;2023-12-20T01:53:05;7.10;99.90
10848;DHT22;5477;48.806;9.154;2023-12-20T01:55:36;7.10;99.90
10848;DHT22;5477;48.806;9.154;2023-12-20T01:58:08;7.10;99.90
10848;DHT22;5477;48.806;9.154;2023-12-20T02:00:37;7.10;99.90
10848;DHT22;5477;48.806;9.154;2023-12-20T02:03:05;7.10;99.90
10848;DHT22;5477;48.806;9.154;2023-12-20T02:05:35;7.00;99.90
10848;DHT22;5477;48.806;9.154;2023-12-20T02:08:02;7.00;99.90
10848;DHT22;5477;48.806;9.154;2023-12-20T02:10:30;7.00;99.90
10848;DHT22;5477;48.806;9.154;2023-12-20T02:12:59;7.00;99.90
10848;DHT22;5477;48.806;9.154;2023-12-20T02:15:28;7.00;99.90
10848;DHT22;5477;48.806;9.154;2023-12-20T02:17:56;7.10;99.90
10848;DHT22;5477;48.806;9.154;2023-12-20T02:20:24;7.10;99.90
10848;DHT22;5477;48.806;9.154;2023-12-20T02:22:53;7.10;99.90
10848;DHT22;5477;48.806;9.154;2023-12-20T02:25:22;7.10;99.90
10848;DHT22;5477;48.806;9.154;2023-12-20T02:27:50;7.10;99.90
10848;DHT22;5477;48.806;9.154;2023-12-20T02:30:18;7.10;99.90
10848;DHT22;5477;48.806;9.154;2023-12-20T02:32:47;7.00;99.90
10848;DHT22;5477;48.806;9.154;2023-12-20T02:35:15;7.00;99.90
10848;DHT22;5477;48.806;9.154;2023-12-20T02:37:43;7.00;99.90
10848;DHT22;5477;48.806;9.154;2023-12-20T02:40:13;7.00;99.90
10848;DHT22;5477;48.806;9.154;2023-12-20T02:42:41;7.00;99.90
10848;DHT22;5477;48.806;9.154;2023-12-20T02:45:09;7.00;99.90
10848;DHT22;5477;48.806;9.154;2023-12-20T02:47:37;6.90;99.90
10848;DHT22;5477;48.806;9.154;2023-12-20T02:50:06;6.80;99.90
10848;DHT22;5477;48.806;9.154;2023-12-20T02:52:35;6.80;99.90
10848;DHT22;5477;48.806;9.154;2023-12-20T02:55:03;6.70;99.90
10848;DHT22;5477;48.806;9.154;2023-12-20T02:57:33;6.60;99.90
10848;DHT22;5477;48.806;9.154;2023-12-20T03:00:04;6.60;99.90
10848;DHT22;5477;48.806;9.154;2023-12-20T03:02:32;6.50;99.90
10848;DHT22;5477;48.806;9.154;2023-12-20T03:05:00;6.50;99.90
10848;DHT22;5477;48.806;9.154;2023-12-20T03:07:29;6.50;99.90
10848;DHT22;5477;48.806;9.154;2023-12-20T03:09:57;6.50;99.90
10848;DHT22;5477;48.806;9.154;2023-12-20T03:12:46;6.40;99.90
10848;DHT22;5477;48.806;9.154;2023-12-20T03:15:14;6.50;99.90
10848;DHT22;5477;48.806;9.154;2023-12-20T03:17:42;6.40;99.90
10848;DHT22;5477;48.806;9.154;2023-12-20T03:20:11;6.50;99.90
10848;DHT22;5477;48.806;9.154;2023-12-20T03:22:39;6.60;99.90
10848;DHT22;5477;48.806;9.154;2023-12-20T03:25:07;6.70;99.90
10848;DHT22;5477;48.806;9.154;2023-12-20T03:27:37;6.70;99.90
10848;DHT22;5477;48.806;9.154;2023-12-20T03:30:07;6.60;99.90
10848;DHT22;5477;48.806;9.154;2023-12-20T03:32:37;6.60;99.90
10848;DHT22;5477;48.806;9.154;2023-12-20T03:35:06;6.70;99.90
10848;DHT22;5477;48.806;9.154;2023-12-20T03:37:34;6.60;99.90
10848;DHT22;5477;48.806;9.154;2023-12-20T03:40:03;6.60;99.90
10848;DHT22;5477;48.806;9.154;2023-12-20T03:42:31;6.50;99.90
10848;DHT22;5477;48.806;9.154;2023-12-20T03:44:59;6.50;99.90
10848;DHT22;5477;48.806;9.154;2023-12-20T03:47:28;6.50;99.90
10848;DHT22;5477;48.806;9.154;2023-12-20T03:49:56;6.50;99.90
10848;DHT22;5477;48.806;9.154;2023-12-20T03:52:25;6.50;99.90
10848;DHT22;5477;48.806;9.154;2023-12-20T03:54:53;6.50;99.90
10848;DHT22;5477;48.806;9.154;2023-12-20T03:57:21;6.50;99.90
10848;DHT22;5477;48.806;9.154;2023-12-20T03:59:49;6.50;99.90
10848;DHT22;5477;48.806;9.154;2023-12-20T04:02:17;6.50;99.90
10848;DHT22;5477;48.806;9.154;2023-12-20T04:04:46;6.50;99.90
10848;DHT22;5477;48.806;9.154;2023-12-20T04:07:15;6.50;99.90
10848;DHT22;5477;48.806;9.154;2023-12-20T04:09:43;6.50;99.90
10848;DHT22;5477;48.806;9.154;2023-12-20T04:12:11;6.40;99.90
10848;DHT22;5477;48.806;9.154;2023-12-20T04:14:39;6.40;99.90
10848;DHT22;5477;48.806;9.154;2023-12-20T04:17:07;6.40;99.90
10848;DHT22;5477;48.806;9.154;2023-12-20T04:19:35;6.30;99.90
10848;DHT22;5477;48.806;9.154;2023-12-20T04:22:05;6.30;99.90
10848;DHT22;5477;48.806;9.154;2023-12-20T04:24:33;6.20;99.90
10848;DHT22;5477;48.806;9.154;2023-12-20T04:27:01;6.20;99.90
10848;DHT22;5477;48.806;9.154;2023-12-20T04:29:29;6.20;99.90
10848;DHT22;5477;48.806;9.154;2023-12-20T04:31:57;6.20;99.90
10848;DHT22;5477;48.806;9.154;2023-12-20T04:34:25;6.20;99.90
10848;DHT22;5477;48.806;9.154;2023-12-20T04:36:53;6.10;99.90
10848;DHT22;5477;48.806;9.154;2023-12-20T04:39:26;6.10;99.90
10848;DHT22;5477;48.806;9.154;2023-12-20T04:41:54;6.10;99.90
10848;DHT22;5477;48.806;9.154;2023-12-20T04:44:22;6.10;99.90
10848;DHT22;5477;48.806;9.154;2023-12-20T04:46:54;6.10;99.90
10848;DHT22;5477;48.806;9.154;2023-12-20T04:49:23;6.10;99.90
10848;DHT22;5477;48.806;9.154;2023-12-20T04:51:52;6.10;99.90
10848;DHT22;5477;48.806;9.154;2023-12-20T04:54:20;6.10;99.90
10848;DHT22;5477;48.806;9.154;2023-12-20T04:56:49;6.10;99.90
10848;DHT22;5477;48.806;9.154;2023-12-20T04:59:17;6.20;99.90
10848;DHT22;5477;48.806;9.154;2023-12-20T05:01:45;6.20;99.90
10848;DHT22;5477;48.806;9.154;2023-12-20T05:04:14;6.20;99.90
10848;DHT22;5477;48.806;9.154;2023-12-20T05:06:42;6.20;99.90
10848;DHT22;5477;48.806;9.154;2023-12-20T05:09:10;6.20;99.90
10848;DHT22;5477;48.806;9.154;2023-12-20T05:11:38;6.10;99.90
10848;DHT22;5477;48.806;9.154;2023-12-20T05:14:07;6.10;99.90
10848;DHT22;5477;48.806;9.154;2023-12-20T05:16:35;6.10;99.90
10848;DHT22;5477;48.806;9.154;2023-12-20T05:19:03;6.10;99.90
10848;DHT22;5477;48.806;9.154;2023-12-20T05:21:33;6.00;99.90
10848;DHT22;5477;48.806;9.154;2023-12-20T05:24:03;6.00;99.90
10848;DHT22;5477;48.806;9.154;2023-12-20T05:26:31;6.00;99.90
10848;DHT22;5477;48.806;9.154;2023-12-20T05:28:59;6.00;99.90
10848;DHT22;5477;48.806;9.154;2023-12-20T05:31:28;6.10;99.90
10848;DHT22;5477;48.806;9.154;2023-12-20T05:33:56;6.10;99.90
10848;DHT22;5477;48.806;9.154;2023-12-20T05:36:25;6.00;99.90
10848;DHT22;5477;48.806;9.154;2023-12-20T05:38:53;6.00;99.90
10848;DHT22;5477;48.806;9.154;2023-12-20T05:41:21;6.00;99.90
10848;DHT22;5477;48.806;9.154;2023-12-20T05:43:49;6.00;99.90
10848;DHT22;5477;48.806;9.154;2023-12-20T05:46:17;6.00;99.90
10848;DHT22;5477;48.806;9.154;2023-12-20T05:48:47;6.00;99.90
10848;DHT22;5477;48.806;9.154;2023-12-20T05:51:15;6.00;99.90
10848;DHT22;5477;48.806;9.154;2023-12-20T05:53:43;6.00;99.90
10848;DHT22;5477;48.806;9.154;2023-12-20T05:56:12;6.00;99.90
10848;DHT22;5477;48.806;9.154;2023-12-20T05:58:40;6.00;99.90
10848;DHT22;5477;48.806;9.154;2023-12-20T06:01:08;6.00;99.90
10848;DHT22;5477;48.806;9.154;2023-12-20T06:03:36;6.10;99.90
10848;DHT22;5477;48.806;9.154;2023-12-20T06:06:07;6.10;99.90
10848;DHT22;5477;48.806;9.154;2023-12-20T06:08:42;6.10;99.90
10848;DHT22;5477;48.806;9.154;2023-12-20T06:11:11;6.10;99.90
10848;DHT22;5477;48.806;9.154;2023-12-20T06:13:40;6.10;99.90
10848;DHT22;5477;48.806;9.154;2023-12-20T06:16:08;6.20;99.90
10848;DHT22;5477;48.806;9.154;2023-12-20T06:18:36;6.20;99.90
10848;DHT22;5477;48.806;9.154;2023-12-20T06:21:04;6.20;99.90
10848;DHT22;5477;48.806;9.154;2023-12-20T06:23:35;6.20;99.90
10848;DHT22;5477;48.806;9.154;2023-12-20T06:26:03;6.20;99.90
10848;DHT22;5477;48.806;9.154;2023-12-20T06:28:31;6.20;99.90
10848;DHT22;5477;48.806;9.154;2023-12-20T06:30:59;6.20;99.90
10848;DHT22;5477;48.806;9.154;2023-12-20T06:33:27;6.10;99.90
10848;DHT22;5477;48.806;9.154;2023-12-20T06:35:56;6.20;99.90
10848;DHT22;5477;48.806;9.154;2023-12-20T06:38:24;6.20;99.90
10848;DHT22;5477;48.806;9.154;2023-12-20T06:40:53;6.20;99.90
10848;DHT22;5477;48.806;9.154;2023-12-20T06:43:24;6.20;99.90
10848;DHT22;5477;48.806;9.154;2023-12-20T06:46:12;6.20;99.90
10848;DHT22;5477;48.806;9.154;2023-12-20T06:48:40;6.20;99.90
10848;DHT22;5477;48.806;9.154;2023-12-20T06:51:11;6.30;99.90
10848;DHT22;5477;48.806;9.154;2023-12-20T06:53:40;6.30;99.90
10848;DHT22;5477;48.806;9.154;2023-12-20T06:56:10;6.40;99.90
10848;DHT22;5477;48.806;9.154;2023-12-20T06:58:41;6.30;99.90
10848;DHT22;5477;48.806;9.154;2023-12-20T07:01:11;6.40;99.90
10848;DHT22;5477;48.806;9.154;2023-12-20T07:03:40;6.40;99.90
10848;DHT22;5477;48.806;9.154;2023-12-20T07:06:08;6.50;99.90
10848;DHT22;5477;48.806;9.154;2023-12-20T07:08:36;6.50;99.90
10848;DHT22;5477;48.806;9.154;2023-12-20T07:11:04;6.60;99.90
10848;DHT22;5477;48.806;9.154;2023-12-20T07:13:34;6.60;99.90
10848;DHT22;5477;48.806;9.154;2023-12-20T07:16:02;6.60;99.90
10848;DHT22;5477;48.806;9.154;2023-12-20T07:18:30;6.60;99.90
10848;DHT22;5477;48.806;9.154;2023-12-20T07:20:58;6.60;99.90
10848;DHT22;5477;48.806;9.154;2023-12-20T07:23:26;6.60;99.90
10848;DHT22;5477;48.806;9.154;2023-12-20T07:25:54;6.60;99.90
10848;DHT22;5477;48.806;9.154;2023-12-20T07:28:22;6.50;99.90
10848;DHT22;5477;48.806;9.154;2023-12-20T07:30:52;6.50;99.90
10848;DHT22;5477;48.806;9.154;2023-12-20T07:33:21;6.50;99.90
10848;DHT22;5477;48.806;9.154;2023-12-20T07:35:49;6.40;99.90
10848;DHT22;5477;48.806;9.154;2023-12-20T07:38:19;6.30;99.90
10848;DHT22;5477;48.806;9.154;2023-12-20T07:40:47;6.40;99.90
10848;DHT22;5477;48.806;9.154;2023-12-20T07:43:15;6.30;99.90
10848;DHT22;5477;48.806;9.154;2023-12-20T07:45:43;6.40;99.90
10848;DHT22;5477;48.806;9.154;2023-12-20T07:48:12;6.30;99.90
10848;DHT22;5477;48.806;9.154;2023-12-20T07:50:40;6.30;99.90
10848;DHT22;5477;48.806;9.154;2023-12-20T07:53:09;6.30;99.90
10848;DHT22;5477;48.806;9.154;2023-12-20T07:55:36;6.30;99.90
10848;DHT22;5477;48.806;9.154;2023-12-20T07:58:04;6.30;99.90
10848;DHT22;5477;48.806;9.154;2023-12-20T08:00:32;6.20;99.90
10848;DHT22;5477;48.806;9.154;2023-12-20T08:03:00;6.20;99.90
10848;DHT22;5477;48.806;9.154;2023-12-20T08:05:31;6.20;99.90
10848;DHT22;5477;48.806;9.154;2023-12-20T08:07:59;6.20;99.90
10848;DHT22;5477;48.806;9.154;2023-12-20T08:10:27;6.10;99.90
10848;DHT22;5477;48.806;9.154;2023-12-20T08:12:56;6.10;99.90
10848;DHT22;5477;48.806;9.154;2023-12-20T08:15:25;6.00;99.90
10848;DHT22;5477;48.806;9.154;2023-12-20T08:17:52;6.00;99.90
10848;DHT22;5477;48.806;9.154;2023-12-20T08:20:21;6.00;99.90
10848;DHT22;5477;48.806;9.154;2023-12-20T08:23:00;6.00;99.90
10848;DHT22;5477;48.806;9.154;2023-12-20T08:25:28;6.00;99.90
10848;DHT22;5477;48.806;9.154;2023-12-20T08:27:56;6.10;99.90
10848;DHT22;5477;48.806;9.154;2023-12-20T08:30:24;6.00;99.90
10848;DHT22;5477;48.806;9.154;2023-12-20T08:32:52;5.90;99.90
10848;DHT22;5477;48.806;9.154;2023-12-20T08:35:20;5.90;99.90
10848;DHT22;5477;48.806;9.154;2023-12-20T08:37:49;5.90;99.90
10848;DHT22;5477;48.806;9.154;2023-12-20T08:40:18;5.90;99.90
10848;DHT22;5477;48.806;9.154;2023-12-20T08:42:47;5.80;99.90
10848;DHT22;5477;48.806;9.154;2023-12-20T08:45:15;5.80;99.90
10848;DHT22;5477;48.806;9.154;2023-12-20T08:47:45;5.70;99.90
10848;DHT22;5477;48.806;9.154;2023-12-20T08:50:14;5.70;99.90
10848;DHT22;5477;48.806;9.154;2023-12-20T08:52:42;5.60;99.90
10848;DHT22;5477;48.806;9.154;2023-12-20T08:55:11;5.70;99.90
10848;DHT22;5477;48.806;9.154;2023-12-20T08:57:41;5.80;99.90
10848;DHT22;5477;48.806;9.154;2023-12-20T09:00:10;5.80;99.90
10848;DHT22;5477;48.806;9.154;2023-12-20T09:02:38;5.90;99.90
10848;DHT22;5477;48.806;9.154;2023-12-20T09:05:07;6.00;99.90
10848;DHT22;5477;48.806;9.154;2023-12-20T09:07:35;6.00;99.90
10848;DHT22;5477;48.806;9.154;2023-12-20T09:10:04;6.00;99.90
10848;DHT22;5477;48.806;9.154;2023-12-20T09:12:32;6.10;99.90
10848;DHT22;5477;48.806;9.154;2023-12-20T09:15:01;6.20;99.90
10848;DHT22;5477;48.806;9.154;2023-12-20T09:17:30;6.30;99.90
10848;DHT22;5477;48.806;9.154;2023-12-20T09:19:59;6.40;99.90
10848;DHT22;5477;48.806;9.154;2023-12-20T09:22:28;6.70;99.90
10848;DHT22;5477;48.806;9.154;2023-12-20T09:24:56;6.70;99.90
10848;DHT22;5477;48.806;9.154;2023-12-20T09:27:24;6.60;99.90
10848;DHT22;5477;48.806;9.154;2023-12-20T09:29:52;6.60;99.90
10848;DHT22;5477;48.806;9.154;2023-12-20T09:32:21;6.60;99.90
10848;DHT22;5477;48.806;9.154;2023-12-20T09:34:49;6.70;99.90
10848;DHT22;5477;48.806;9.154;2023-12-20T09:37:17;6.70;99.90
10848;DHT22;5477;48.806;9.154;2023-12-20T09:39:45;6.70;99.90
10848;DHT22;5477;48.806;9.154;2023-12-20T09:42:17;6.70;99.90
10848;DHT22;5477;48.806;9.154;2023-12-20T09:44:49;6.60;99.90
10848;DHT22;5477;48.806;9.154;2023-12-20T09:47:21;6.70;99.90
10848;DHT22;5477;48.806;9.154;2023-12-20T09:49:51;6.80;99.90
10848;DHT22;5477;48.806;9.154;2023-12-20T09:52:20;6.90;99.90
10848;DHT22;5477;48.806;9.154;2023-12-20T09:54:53;7.00;99.90
10848;DHT22;5477;48.806;9.154;2023-12-20T09:57:21;7.00;99.90
10848;DHT22;5477;48.806;9.154;2023-12-20T09:59:50;7.00;99.90
10848;DHT22;5477;48.806;9.154;2023-12-20T10:02:23;7.10;99.90
10848;DHT22;5477;48.806;9.154;2023-12-20T10:04:54;7.10;99.90
10848;DHT22;5477;48.806;9.154;2023-12-20T10:07:23;7.30;99.90
10848;DHT22;5477;48.806;9.154;2023-12-20T10:09:54;7.60;99.90
10848;DHT22;5477;48.806;9.154;2023-12-20T10:12:22;7.60;99.90
10848;DHT22;5477;48.806;9.154;2023-12-20T10:14:50;7.70;99.90
10848;DHT22;5477;48.806;9.154;2023-12-20T10:17:19;7.90;99.90
10848;DHT22;5477;48.806;9.154;2023-12-20T10:19:51;7.80;99.90
10848;DHT22;5477;48.806;9.154;2023-12-20T10:22:20;7.60;99.90
10848;DHT22;5477;48.806;9.154;2023-12-20T10:24:49;7.50;99.90
10848;DHT22;5477;48.806;9.154;2023-12-20T10:27:18;7.50;99.90
10848;DHT22;5477;48.806;9.154;2023-12-20T10:29:46;7.40;99.90
10848;DHT22;5477;48.806;9.154;2023-12-20T10:32:22;7.30;99.90
10848;DHT22;5477;48.806;9.154;2023-12-20T10:34:54;7.10;99.90
10848;DHT22;5477;48.806;9.154;2023-12-20T10:37:23;7.10;99.90
10848;DHT22;5477;48.806;9.154;2023-12-20T10:39:53;7.00;99.90
10848;DHT22;5477;48.806;9.154;2023-12-20T10:42:25;6.90;99.90
10848;DHT22;5477;48.806;9.154;2023-12-20T10:44:54;6.90;99.90
10848;DHT22;5477;48.806;9.154;2023-12-20T10:47:23;6.90;99.90
10848;DHT22;5477;48.806;9.154;2023-12-20T10:49:54;6.90;99.90
10848;DHT22;5477;48.806;9.154;2023-12-20T10:52:24;6.70;99.90
10848;DHT22;5477;48.806;9.154;2023-12-20T10:54:54;6.60;99.90
10848;DHT22;5477;48.806;9.154;2023-12-20T10:57:22;6.60;99.90
10848;DHT22;5477;48.806;9.154;2023-12-20T10:59:51;6.60;99.90
10848;DHT22;5477;48.806;9.154;2023-12-20T11:02:22;6.60;99.90
10848;DHT22;5477;48.806;9.154;2023-12-20T11:04:55;6.60;99.90
10848;DHT22;5477;48.806;9.154;2023-12-20T11:07:29;6.70;99.90
10848;DHT22;5477;48.806;9.154;2023-12-20T11:10:03;6.80;99.90
10848;DHT22;5477;48.806;9.154;2023-12-20T11:12:38;6.90;99.90
10848;DHT22;5477;48.806;9.154;2023-12-20T11:15:10;7.00;99.90
10848;DHT22;5477;48.806;9.154;2023-12-20T11:17:39;7.00;99.90
10848;DHT22;5477;48.806;9.154;2023-12-20T11:20:10;7.00;99.90
10848;DHT22;5477;48.806;9.154;2023-12-20T11:22:40;6.90;99.90
10848;DHT22;5477;48.806;9.154;2023-12-20T11:25:20;6.90;99.90
10848;DHT22;5477;48.806;9.154;2023-12-20T11:28:09;6.80;99.90
10848;DHT22;5477;48.806;9.154;2023-12-20T11:30:41;6.70;99.90
10848;DHT22;5477;48.806;9.154;2023-12-20T11:33:10;6.70;99.90
10848;DHT22;5477;48.806;9.154;2023-12-20T11:35:39;6.60;99.90
10848;DHT22;5477;48.806;9.154;2023-12-20T11:38:08;6.60;99.90
10848;DHT22;5477;48.806;9.154;2023-12-20T11:40:37;6.60;99.90
10848;DHT22;5477;48.806;9.154;2023-12-20T11:43:05;6.60;99.90
10848;DHT22;5477;48.806;9.154;2023-12-20T11:45:33;6.70;99.90
10848;DHT22;5477;48.806;9.154;2023-12-20T11:48:03;6.90;99.90
10848;DHT22;5477;48.806;9.154;2023-12-20T11:50:32;6.90;99.90
10848;DHT22;5477;48.806;9.154;2023-12-20T11:53:01;6.80;99.90
10848;DHT22;5477;48.806;9.154;2023-12-20T11:55:29;6.60;99.90
10848;DHT22;5477;48.806;9.154;2023-12-20T11:57:58;6.50;99.90
10848;DHT22;5477;48.806;9.154;2023-12-20T12:00:26;6.50;99.90
10848;DHT22;5477;48.806;9.154;2023-12-20T12:02:58;6.50;99.90
10848;DHT22;5477;48.806;9.154;2023-12-20T12:05:26;6.50;99.90
10848;DHT22;5477;48.806;9.154;2023-12-20T12:07:54;6.50;99.90
10848;DHT22;5477;48.806;9.154;2023-12-20T12:10:23;6.60;99.90
10848;DHT22;5477;48.806;9.154;2023-12-20T12:12:52;6.50;99.90
10848;DHT22;5477;48.806;9.154;2023-12-20T12:15:20;6.60;99.90
10848;DHT22;5477;48.806;9.154;2023-12-20T12:17:53;6.60;99.90
10848;DHT22;5477;48.806;9.154;2023-12-20T12:20:22;6.70;99.90
10848;DHT22;5477;48.806;9.154;2023-12-20T12:22:58;6.70;99.90
10848;DHT22;5477;48.806;9.154;2023-12-20T12:25:28;6.90;99.90
10848;DHT22;5477;48.806;9.154;2023-12-20T12:27:58;6.90;99.90
10848;DHT22;5477;48.806;9.154;2023-12-20T12:30:26;7.00;99.90
10848;DHT22;5477;48.806;9.154;2023-12-20T12:33:01;7.00;99.90
10848;DHT22;5477;48.806;9.154;2023-12-20T12:35:29;7.10;99.90
10848;DHT22;5477;48.806;9.154;2023-12-20T12:37:59;7.10;99.90
10848;DHT22;5477;48.806;9.154;2023-12-20T12:40:28;7.00;99.90
10848;DHT22;5477;48.806;9.154;2023-12-20T12:42:56;6.90;99.90
10848;DHT22;5477;48.806;9.154;2023-12-20T12:45:24;6.90;99.90
10848;DHT22;5477;48.806;9.154;2023-12-20T12:47:53;6.90;99.90
10848;DHT22;5477;48.806;9.154;2023-12-20T12:50:21;7.00;99.90
10848;DHT22;5477;48.806;9.154;2023-12-20T12:52:50;7.00;99.90
10848;DHT22;5477;48.806;9.154;2023-12-20T12:55:18;7.00;99.90
10848;DHT22;5477;48.806;9.154;2023-12-20T12:57:47;7.00;99.90
10848;DHT22;5477;48.806;9.154;2023-12-20T13:00:16;7.00;99.90
10848;DHT22;5477;48.806;9.154;2023-12-20T13:02:44;6.90;99.90
10848;DHT22;5477;48.806;9.154;2023-12-20T13:05:12;6.90;99.90
10848;DHT22;5477;48.806;9.154;2023-12-20T13:07:40;6.90;99.90
10848;DHT22;5477;48.806;9.154;2023-12-20T13:10:12;6.90;99.90
10848;DHT22;5477;48.806;9.154;2023-12-20T13:12:43;6.90;99.90
10848;DHT22;5477;48.806;9.154;2023-12-20T13:15:12;7.00;99.90
10848;DHT22;5477;48.806;9.154;2023-12-20T13:17:41;7.00;99.90
10848;DHT22;5477;48.806;9.154;2023-12-20T13:20:09;6.90;99.90
10848;DHT22;5477;48.806;9.154;2023-12-20T13:22:37;6.90;99.90
10848;DHT22;5477;48.806;9.154;2023-12-20T13:25:06;6.80;99.90
10848;DHT22;5477;48.806;9.154;2023-12-20T13:27:34;6.90;99.90
10848;DHT22;5477;48.806;9.154;2023-12-20T13:30:04;7.00;99.90
10848;DHT22;5477;48.806;9.154;2023-12-20T13:32:33;7.00;99.90
10848;DHT22;5477;48.806;9.154;2023-12-20T13:35:02;7.00;99.90
10848;DHT22;5477;48.806;9.154;2023-12-20T13:37:31;7.10;99.90
10848;DHT22;5477;48.806;9.154;2023-12-20T13:39:59;7.00;99.90
10848;DHT22;5477;48.806;9.154;2023-12-20T13:42:28;7.00;99.90
10848;DHT22;5477;48.806;9.154;2023-12-20T13:44:56;7.00;99.90
10848;DHT22;5477;48.806;9.154;2023-12-20T13:47:24;7.00;99.90
10848;DHT22;5477;48.806;9.154;2023-12-20T13:49:53;7.00;99.90
10848;DHT22;5477;48.806;9.154;2023-12-20T13:52:23;7.00;99.90
10848;DHT22;5477;48.806;9.154;2023-12-20T13:54:51;6.90;99.90
10848;DHT22;5477;48.806;9.154;2023-12-20T13:57:19;6.80;99.90
10848;DHT22;5477;48.806;9.154;2023-12-20T14:00:07;6.70;99.90
10848;DHT22;5477;48.806;9.154;2023-12-20T14:02:41;6.70;99.90
10848;DHT22;5477;48.806;9.154;2023-12-20T14:05:11;6.80;99.90
10848;DHT22;5477;48.806;9.154;2023-12-20T14:07:40;6.60;99.90
10848;DHT22;5477;48.806;9.154;2023-12-20T14:10:12;6.60;99.90
10848;DHT22;5477;48.806;9.154;2023-12-20T14:12:41;6.60;99.90
10848;DHT22;5477;48.806;9.154;2023-12-20T14:15:09;6.60;99.90
10848;DHT22;5477;48.806;9.154;2023-12-20T14:17:38;6.60;99.90
10848;DHT22;5477;48.806;9.154;2023-12-20T14:20:06;6.60;99.90
10848;DHT22;5477;48.806;9.154;2023-12-20T14:22:36;6.50;99.90
10848;DHT22;5477;48.806;9.154;2023-12-20T14:25:06;6.50;99.90
10848;DHT22;5477;48.806;9.154;2023-12-20T14:27:35;6.40;99.90
10848;DHT22;5477;48.806;9.154;2023-12-20T14:30:04;6.40;99.90
10848;DHT22;5477;48.806;9.154;2023-12-20T14:32:34;6.40;99.90
10848;DHT22;5477;48.806;9.154;2023-12-20T14:35:04;6.40;99.90
10848;DHT22;5477;48.806;9.154;2023-12-20T14:37:33;6.50;99.90
10848;DHT22;5477;48.806;9.154;2023-12-20T14:40:03;6.60;99.90
10848;DHT22;5477;48.806;9.154;2023-12-20T14:42:31;6.50;99.90
10848;DHT22;5477;48.806;9.154;2023-12-20T14:44:59;6.50;99.90
10848;DHT22;5477;48.806;9.154;2023-12-20T14:47:27;6.50;99.90
10848;DHT22;5477;48.806;9.154;2023-12-20T14:49:55;6.40;99.90
10848;DHT22;5477;48.806;9.154;2023-12-20T14:52:24;6.40;99.90
10848;DHT22;5477;48.806;9.154;2023-12-20T14:54:52;6.30;99.90
10848;DHT22;5477;48.806;9.154;2023-12-20T14:57:21;6.30;99.90
10848;DHT22;5477;48.806;9.154;2023-12-20T14:59:49;6.30;99.90
10848;DHT22;5477;48.806;9.154;2023-12-20T15:02:17;6.30;99.90
10848;DHT22;5477;48.806;9.154;2023-12-20T15:04:45;6.30;99.90
10848;DHT22;5477;48.806;9.154;2023-12-20T15:07:13;6.30;99.90
10848;DHT22;5477;48.806;9.154;2023-12-20T15:09:42;6.30;99.90
10848;DHT22;5477;48.806;9.154;2023-12-20T15:12:12;6.30;99.90
10848;DHT22;5477;48.806;9.154;2023-12-20T15:14:42;6.30;99.90
10848;DHT22;5477;48.806;9.154;2023-12-20T15:17:11;6.20;99.90
10848;DHT22;5477;48.806;9.154;2023-12-20T15:19:39;6.20;99.90
10848;DHT22;5477;48.806;9.154;2023-12-20T15:22:08;6.20;99.90
10848;DHT22;5477;48.806;9.154;2023-12-20T15:24:36;6.20;99.90
10848;DHT22;5477;48.806;9.154;2023-12-20T15:27:07;6.20;99.90
10848;DHT22;5477;48.806;9.154;2023-12-20T15:29:35;6.20;99.90
10848;DHT22;5477;48.806;9.154;2023-12-20T15:32:05;6.20;99.90
10848;DHT22;5477;48.806;9.154;2023-12-20T15:34:33;6.20;99.90
10848;DHT22;5477;48.806;9.154;2023-12-20T15:37:01;6.20;99.90
10848;DHT22;5477;48.806;9.154;2023-12-20T15:39:30;6.30;99.90
10848;DHT22;5477;48.806;9.154;2023-12-20T15:41:58;6.20;99.90
10848;DHT22;5477;48.806;9.154;2023-12-20T15:44:26;6.20;99.90
10848;DHT22;5477;48.806;9.154;2023-12-20T15:46:54;6.20;99.90
10848;DHT22;5477;48.806;9.154;2023-12-20T15:49:23;6.20;99.90
10848;DHT22;5477;48.806;9.154;2023-12-20T15:51:52;6.20;99.90
10848;DHT22;5477;48.806;9.154;2023-12-20T15:54:20;6.20;99.90
10848;DHT22;5477;48.806;9.154;2023-12-20T15:56:48;6.20;99.90
10848;DHT22;5477;48.806;9.154;2023-12-20T15:59:16;6.20;99.90
10848;DHT22;5477;48.806;9.154;2023-12-20T16:01:44;6.10;99.90
10848;DHT22;5477;48.806;9.154;2023-12-20T16:04:20;6.10;99.90
10848;DHT22;5477;48.806;9.154;2023-12-20T16:06:50;6.10;99.90
10848;DHT22;5477;48.806;9.154;2023-12-20T16:09:18;6.10;99.90
10848;DHT22;5477;48.806;9.154;2023-12-20T16:11:46;6.00;99.90
10848;DHT22;5477;48.806;9.154;2023-12-20T16:14:13;6.00;99.90